createdAt,value
2023-03-31T00:00:02.386Z,78.68
2023-03-31T00:03:29.325Z,78.40
2023-03-31T00:06:38.302Z,78.44
2023-03-31T00:09:46.078Z,78.27
2023-03-31T00:12:50.575Z,78.42
2023-03-31T00:15:59.153Z,78.83
2023-03-31T00:19:03.099Z,78.52
2023-03-31T00:22:06.938Z,78.25
2023-03-31T00:25:12.467Z,78.41
2023-03-31T00:28:16.073Z,78.43
2023-03-31T00:31:19.915Z,77.86
2023-03-31T00:34:24.252Z,78.39
2023-03-31T00:37:28.369Z,78.45
2023-03-31T00:40:33.461Z,78.23
2023-03-31T00:43:39.857Z,78.24
2023-03-31T00:46:52.327Z,77.95
2023-03-31T00:49:59.798Z,78.23
2023-03-31T00:53:09.913Z,78.50
2023-03-31T00:56:18.740Z,78.59
2023-03-31T00:59:29.131Z,77.72
2023-03-31T01:02:33.232Z,78.06
2023-03-31T01:05:44.226Z,78.43
2023-03-31T01:08:51.182Z,78.40
2023-03-31T01:11:56.615Z,78.24
2023-03-31T01:15:02.618Z,77.78
2023-03-31T01:18:10.028Z,78.07
2023-03-31T01:22:09.731Z,77.60
2023-03-31T01:25:45.501Z,78.04
2023-03-31T01:29:05.873Z,78.37
2023-03-31T01:32:56.915Z,77.89
2023-03-31T01:36:47.972Z,78.94
2023-03-31T01:40:25.144Z,78.89
2023-03-31T01:43:42.337Z,78.83
2023-03-31T01:46:57.722Z,79.75
2023-03-31T01:50:09.926Z,78.36
2023-03-31T01:53:23.173Z,78.96
2023-03-31T01:56:38.904Z,78.68
2023-03-31T01:59:53.991Z,78.89
2023-03-31T02:03:08.038Z,77.98
2023-03-31T02:06:21.927Z,78.94
2023-03-31T02:09:33.488Z,78.75
2023-03-31T02:12:44.270Z,78.72
2023-03-31T02:15:57.944Z,78.99
2023-03-31T02:19:06.883Z,79.01
2023-03-31T02:22:14.292Z,78.58
2023-03-31T02:25:25.379Z,78.89
2023-03-31T02:28:32.649Z,78.51
2023-03-31T02:31:48.835Z,79.22
2023-03-31T02:34:53.212Z,78.81
2023-03-31T02:37:58.855Z,78.71
2023-03-31T02:41:03.040Z,78.43
2023-03-31T02:44:08.135Z,78.49
2023-03-31T02:47:15.934Z,78.61
2023-03-31T02:50:35.136Z,78.19
2023-03-31T02:53:58.489Z,78.99
2023-03-31T02:57:33.898Z,78.67
2023-03-31T03:00:59.789Z,78.04
2023-03-31T03:04:29.776Z,78.60
2023-03-31T03:07:47.885Z,78.36
2023-03-31T03:11:07.814Z,78.16
2023-03-31T03:14:28.668Z,78.39
2023-03-31T03:17:40.324Z,79.18
2023-03-31T03:20:48.595Z,78.68
2023-03-31T03:23:52.969Z,78.24
2023-03-31T03:26:57.729Z,79.02
2023-03-31T03:30:02.699Z,78.88
2023-03-31T03:33:08.148Z,78.52
2023-03-31T03:36:12.255Z,78.49
2023-03-31T03:39:16.229Z,78.58
2023-03-31T03:42:19.746Z,78.53
2023-03-31T03:45:23.660Z,78.27
2023-03-31T03:48:28.595Z,77.99
2023-03-31T03:51:32.693Z,78.40
2023-03-31T03:54:36.314Z,78.97
2023-03-31T03:57:40.283Z,78.58
2023-03-31T04:00:45.332Z,78.27
2023-03-31T04:03:51.111Z,78.06
2023-03-31T04:06:55.194Z,78.64
2023-03-31T04:09:58.969Z,79.11
2023-03-31T04:13:02.535Z,78.73
2023-03-31T04:16:07.719Z,78.15
2023-03-31T04:19:14.004Z,78.69
2023-03-31T04:22:20.758Z,78.53
2023-03-31T04:25:24.761Z,78.82
2023-03-31T04:28:34.854Z,78.81
2023-03-31T04:31:42.756Z,78.56
2023-03-31T04:34:50.687Z,78.32
2023-03-31T04:37:59.025Z,78.35
2023-03-31T04:41:03.378Z,78.46
2023-03-31T04:44:07.166Z,77.66
2023-03-31T04:47:11.227Z,77.57
2023-03-31T04:50:17.250Z,77.64
2023-03-31T04:53:21.454Z,77.66
2023-03-31T04:56:25.108Z,78.31
2023-03-31T04:59:29.262Z,76.80
2023-03-31T05:02:33.001Z,77.79
2023-03-31T05:05:38.705Z,77.09
2023-03-31T05:08:42.271Z,77.25
2023-03-31T05:11:46.320Z,76.80
2023-03-31T05:14:50.068Z,77.06
2023-03-31T05:17:55.012Z,76.86
2023-03-31T05:21:13.921Z,77.08
2023-03-31T05:24:18.723Z,76.66
2023-03-31T05:27:22.413Z,76.68
2023-03-31T05:30:27.353Z,76.91
2023-03-31T05:33:31.369Z,76.50
2023-03-31T05:36:37.562Z,76.15
2023-03-31T05:39:41.180Z,75.61
2023-03-31T05:42:45.107Z,75.97
2023-03-31T05:45:48.679Z,75.99
2023-03-31T05:48:52.515Z,76.11
2023-03-31T05:51:57.541Z,75.30
2023-03-31T05:55:01.683Z,74.86
2023-03-31T05:58:06.746Z,75.41
2023-03-31T06:01:14.290Z,75.07
2023-03-31T06:04:19.670Z,74.79
2023-03-31T06:07:26.892Z,74.53
2023-03-31T06:10:31.672Z,73.95
2023-03-31T06:13:35.961Z,73.28
2023-03-31T06:16:39.888Z,73.36
2023-03-31T06:19:43.996Z,72.43
2023-03-31T06:22:48.905Z,72.65
2023-03-31T06:25:53.283Z,72.51
2023-03-31T06:28:57.074Z,71.73
2023-03-31T06:32:01.375Z,72.23
2023-03-31T06:35:05.422Z,71.64
2023-03-31T06:38:10.876Z,71.29
2023-03-31T06:41:16.756Z,71.24
2023-03-31T06:44:23.345Z,70.78
2023-03-31T06:47:26.900Z,71.24
2023-03-31T06:50:30.913Z,70.84
2023-03-31T06:53:36.630Z,70.66
2023-03-31T06:56:40.581Z,70.31
2023-03-31T06:59:44.400Z,71.03
2023-03-31T07:02:48.615Z,71.01
2023-03-31T07:05:54.336Z,70.79
2023-03-31T07:08:59.685Z,71.02
2023-03-31T07:12:05.351Z,70.16
2023-03-31T07:15:10.676Z,69.51
2023-03-31T07:18:15.714Z,69.21
2023-03-31T07:21:19.879Z,69.14
2023-03-31T07:24:24.807Z,68.11
2023-03-31T07:27:28.820Z,68.58
2023-03-31T07:30:32.733Z,68.79
2023-03-31T07:33:37.245Z,67.95
2023-03-31T07:36:41.236Z,68.38
2023-03-31T07:39:46.555Z,67.35
2023-03-31T07:42:52.172Z,67.04
2023-03-31T07:45:56.150Z,66.18
2023-03-31T07:49:02.087Z,66.40
2023-03-31T07:52:06.583Z,65.76
2023-03-31T07:55:12.169Z,66.20
2023-03-31T07:58:16.344Z,65.12
2023-03-31T08:01:25.859Z,65.44
2023-03-31T08:04:30.280Z,64.87
2023-03-31T08:07:35.571Z,65.16
2023-03-31T08:10:40.687Z,64.92
2023-03-31T08:13:44.387Z,64.95
2023-03-31T08:16:48.370Z,64.98
2023-03-31T08:19:52.134Z,65.45
2023-03-31T08:22:56.491Z,65.14
2023-03-31T08:26:13.191Z,65.00
2023-03-31T08:29:18.461Z,65.13
2023-03-31T08:32:24.871Z,64.01
2023-03-31T08:35:28.937Z,64.69
2023-03-31T08:38:32.791Z,64.12
2023-03-31T08:41:54.844Z,64.20
2023-03-31T08:45:06.563Z,62.98
2023-03-31T08:48:26.103Z,62.27
2023-03-31T08:51:33.893Z,62.77
2023-03-31T08:54:43.216Z,62.81
2023-03-31T08:58:01.119Z,61.55
2023-03-31T09:01:21.362Z,60.89
2023-03-31T09:04:52.778Z,61.69
2023-03-31T09:08:09.682Z,60.96
2023-03-31T09:11:28.508Z,61.12
2023-03-31T09:14:39.817Z,60.69
2023-03-31T09:17:49.970Z,60.01
2023-03-31T09:21:03.992Z,60.72
2023-03-31T09:24:16.248Z,61.29
2023-03-31T09:27:22.413Z,60.31
2023-03-31T09:30:31.827Z,61.03
2023-03-31T09:33:40.042Z,60.98
2023-03-31T09:36:44.588Z,60.61
2023-03-31T09:39:48.477Z,59.01
2023-03-31T09:42:59.525Z,58.99
2023-03-31T09:46:13.695Z,58.17
2023-03-31T09:49:23.071Z,57.12
2023-03-31T09:52:31.832Z,56.86
2023-03-31T09:55:47.535Z,55.86
2023-03-31T09:58:51.596Z,56.81
2023-03-31T10:02:02.596Z,54.35
2023-03-31T10:05:09.586Z,55.36
2023-03-31T10:08:27.620Z,54.15
2023-03-31T10:11:31.949Z,54.62
2023-03-31T10:14:42.395Z,51.75
2023-03-31T10:20:59.933Z,52.62
2023-03-31T10:24:10.944Z,52.15
2023-03-31T10:27:24.364Z,52.99
2023-03-31T10:30:38.225Z,51.84
2023-03-31T10:33:49.097Z,54.10
2023-03-31T10:36:53.748Z,52.89
2023-03-31T10:40:01.812Z,52.39
2023-03-31T10:43:17.244Z,51.67
2023-03-31T10:46:22.764Z,51.34
2023-03-31T10:49:29.699Z,51.62
2023-03-31T10:52:46.866Z,50.28
2023-03-31T10:56:24.397Z,50.58
2023-03-31T10:59:58.773Z,49.44
2023-03-31T11:03:37.067Z,51.04
2023-03-31T11:06:58.653Z,51.04
2023-03-31T11:10:31.537Z,49.29
2023-03-31T11:13:49.602Z,49.53
2023-03-31T11:17:05.224Z,49.85
2023-03-31T11:20:24.337Z,50.27
2023-03-31T11:23:43.542Z,50.61
2023-03-31T11:26:57.864Z,51.04
2023-03-31T11:30:08.553Z,51.69
2023-03-31T11:33:42.525Z,51.99
2023-03-31T11:37:26.031Z,51.97
2023-03-31T11:40:50.434Z,52.27
2023-03-31T11:44:03.738Z,52.95
2023-03-31T11:47:14.278Z,52.38
2023-03-31T11:50:23.579Z,51.93
2023-03-31T11:53:34.706Z,51.51
2023-03-31T11:56:42.534Z,52.29
2023-03-31T11:59:56.088Z,50.06
2023-03-31T12:03:11.377Z,49.55
2023-03-31T12:06:20.019Z,50.50
2023-03-31T12:09:31.638Z,49.06
2023-03-31T12:12:45.093Z,49.64
2023-03-31T12:16:01.367Z,48.82
2023-03-31T12:19:16.990Z,46.92
2023-03-31T12:22:28.986Z,47.81
2023-03-31T12:25:49.141Z,46.96
2023-03-31T12:29:03.508Z,48.23
2023-03-31T12:32:16.579Z,49.25
2023-03-31T12:35:27.564Z,49.13
2023-03-31T12:38:58.021Z,50.18
2023-03-31T12:42:35.801Z,50.97
2023-03-31T12:45:48.540Z,51.71
2023-03-31T12:49:22.994Z,52.09
2023-03-31T12:52:38.931Z,52.32
2023-03-31T12:55:48.742Z,51.81
2023-03-31T12:58:52.543Z,52.28
2023-03-31T13:02:27.617Z,51.14
2023-03-31T13:05:49.237Z,50.68
2023-03-31T13:08:58.825Z,48.59
2023-03-31T13:12:09.347Z,48.43
2023-03-31T13:15:16.402Z,48.64
2023-03-31T13:18:23.556Z,48.49
2023-03-31T13:21:28.545Z,49.76
2023-03-31T13:24:34.837Z,50.49
2023-03-31T13:27:39.640Z,50.45
2023-03-31T13:30:53.937Z,50.64
2023-03-31T13:34:04.057Z,50.97
2023-03-31T13:37:23.527Z,50.84
2023-03-31T13:40:57.055Z,51.03
2023-03-31T13:44:42.262Z,51.15
2023-03-31T13:48:16.756Z,52.49
2023-03-31T13:51:51.506Z,53.74
2023-03-31T13:55:29.912Z,55.09
2023-03-31T13:59:13.866Z,59.75
2023-03-31T14:02:58.945Z,61.03
2023-03-31T14:06:08.257Z,61.87
2023-03-31T14:09:25.283Z,64.28
2023-03-31T14:12:35.322Z,63.33
2023-03-31T14:15:45.111Z,63.40
2023-03-31T14:18:59.586Z,64.21
2023-03-31T14:22:19.315Z,63.72
2023-03-31T14:25:42.833Z,62.99
2023-03-31T14:29:12.940Z,63.27
2023-03-31T14:32:33.238Z,62.99
2023-03-31T14:35:44.230Z,62.75
2023-03-31T14:38:48.138Z,61.84
2023-03-31T14:41:58.003Z,61.31
2023-03-31T14:45:09.947Z,59.33
2023-03-31T14:48:16.574Z,57.89
2023-03-31T14:51:27.570Z,55.53
2023-03-31T14:54:38.337Z,54.96
2023-03-31T14:57:47.253Z,55.64
2023-03-31T15:00:51.529Z,56.78
2023-03-31T15:03:56.986Z,58.58
2023-03-31T15:07:04.953Z,59.95
2023-03-31T15:10:17.870Z,60.25
2023-03-31T15:13:34.434Z,61.15
2023-03-31T15:16:43.093Z,61.67
2023-03-31T15:19:47.304Z,63.14
2023-03-31T15:22:50.945Z,61.99
2023-03-31T15:25:59.798Z,62.99
2023-03-31T15:29:10.309Z,63.35
2023-03-31T15:32:19.726Z,63.09
2023-03-31T15:35:28.420Z,64.02
2023-03-31T15:38:32.883Z,63.94
2023-03-31T15:41:37.483Z,64.15
2023-03-31T15:44:47.742Z,64.60
2023-03-31T15:47:55.371Z,64.35
2023-03-31T15:51:03.628Z,64.39
2023-03-31T15:54:34.528Z,65.70
2023-03-31T15:57:38.222Z,65.17
2023-03-31T16:00:52.820Z,65.55
2023-03-31T16:03:57.821Z,64.92
2023-03-31T16:07:08.275Z,64.93
2023-03-31T16:10:21.622Z,66.24
2023-03-31T16:13:25.648Z,65.88
2023-03-31T16:16:31.776Z,65.52
2023-03-31T16:19:46.525Z,66.41
2023-03-31T16:22:54.672Z,65.86
2023-03-31T16:25:59.211Z,66.38
2023-03-31T16:29:02.876Z,66.29
2023-03-31T16:32:14.342Z,67.73
2023-03-31T16:35:18.271Z,66.35
2023-03-31T16:38:24.513Z,66.51
2023-03-31T16:41:30.355Z,66.75
2023-03-31T16:44:34.343Z,67.73
2023-03-31T16:50:43.328Z,67.94
2023-03-31T16:53:48.383Z,67.75
2023-03-31T16:56:52.388Z,68.86
2023-03-31T16:59:58.379Z,67.86
2023-03-31T17:03:05.904Z,67.53
2023-03-31T17:06:12.460Z,68.47
2023-03-31T17:09:16.114Z,68.75
2023-03-31T17:12:19.822Z,69.10
2023-03-31T17:15:23.817Z,68.20
2023-03-31T17:18:29.011Z,69.33
2023-03-31T17:21:32.699Z,69.65
2023-03-31T17:24:36.709Z,70.42
2023-03-31T17:27:40.589Z,69.89
2023-03-31T17:30:47.803Z,71.60
2023-03-31T17:33:53.015Z,71.12
2023-03-31T17:36:57.192Z,70.83
2023-03-31T17:40:01.257Z,71.17
2023-03-31T17:43:06.201Z,71.32
2023-03-31T17:46:13.013Z,71.97
2023-03-31T17:49:18.758Z,71.88
2023-03-31T17:52:22.858Z,72.60
2023-03-31T17:55:27.207Z,72.33
2023-03-31T17:58:32.490Z,72.18
2023-03-31T18:01:36.549Z,72.41
2023-03-31T18:04:41.856Z,73.20
2023-03-31T18:07:45.718Z,72.47
2023-03-31T18:10:49.534Z,72.63
2023-03-31T18:13:53.284Z,72.60
2023-03-31T18:16:57.973Z,72.75
2023-03-31T18:20:03.545Z,72.61
2023-03-31T18:23:07.759Z,73.01
2023-03-31T18:26:14.202Z,72.82
2023-03-31T18:29:18.062Z,72.80
2023-03-31T18:32:21.758Z,73.16
2023-03-31T18:35:27.688Z,73.09
2023-03-31T18:38:31.517Z,72.75
2023-03-31T18:41:35.394Z,73.02
2023-03-31T18:44:42.455Z,73.14
2023-03-31T18:47:46.472Z,73.47
2023-03-31T18:50:53.625Z,72.96
2023-03-31T18:53:57.277Z,73.06
2023-03-31T18:57:02.046Z,73.62
2023-03-31T19:00:08.070Z,72.79
2023-03-31T19:03:12.150Z,73.39
2023-03-31T19:06:17.926Z,73.33
2023-03-31T19:09:22.841Z,73.33
2023-03-31T19:12:26.957Z,73.17
2023-03-31T19:15:31.007Z,73.53
2023-03-31T19:18:35.254Z,73.24
2023-03-31T19:21:41.191Z,73.23
2023-03-31T19:24:45.319Z,73.65
2023-03-31T19:27:49.573Z,73.67
2023-03-31T19:30:56.428Z,73.26
2023-03-31T19:34:01.283Z,74.19
2023-03-31T19:37:06.742Z,73.69
2023-03-31T19:40:11.682Z,73.32
2023-03-31T19:43:21.253Z,73.53
2023-03-31T19:46:25.505Z,74.26
2023-03-31T19:49:29.210Z,74.16
2023-03-31T19:52:34.794Z,73.95
2023-03-31T19:55:40.241Z,73.71
2023-03-31T19:58:44.655Z,74.24
2023-03-31T20:01:48.477Z,74.45
2023-03-31T20:04:53.104Z,74.70
2023-03-31T20:07:58.191Z,74.48
2023-03-31T20:11:02.998Z,74.87
2023-03-31T20:14:07.591Z,75.00
2023-03-31T20:17:12.817Z,75.15
2023-03-31T20:20:17.429Z,74.81
2023-03-31T20:23:23.447Z,74.94
2023-03-31T20:26:30.695Z,74.97
2023-03-31T20:29:35.059Z,75.04
2023-03-31T20:32:40.414Z,75.01
2023-03-31T20:35:44.175Z,74.87
2023-03-31T20:38:52.281Z,75.64
2023-03-31T20:41:56.397Z,75.40
2023-03-31T20:44:59.906Z,75.33
2023-03-31T20:48:03.827Z,75.33
2023-03-31T20:51:09.784Z,75.55
2023-03-31T20:54:14.993Z,75.28
2023-03-31T20:57:18.684Z,75.79
2023-03-31T21:00:22.848Z,75.41
2023-03-31T21:03:26.567Z,75.61
2023-03-31T21:06:33.534Z,75.41
2023-03-31T21:09:38.555Z,75.60
2023-03-31T21:12:46.096Z,75.73
2023-03-31T21:15:50.578Z,75.34
2023-03-31T21:18:55.669Z,75.74
2023-03-31T21:21:59.422Z,76.17
2023-03-31T21:25:05.091Z,76.15
2023-03-31T21:28:08.835Z,76.17
2023-03-31T21:31:17.127Z,75.76
2023-03-31T21:34:20.745Z,76.32
2023-03-31T21:37:24.752Z,76.07
2023-03-31T21:40:30.609Z,76.52
2023-03-31T21:43:34.898Z,76.08
2023-03-31T21:46:39.710Z,76.48
2023-03-31T21:49:43.615Z,76.36
2023-03-31T21:52:47.061Z,76.28
2023-03-31T21:55:55.126Z,76.12
2023-03-31T21:58:58.860Z,75.62
2023-03-31T22:02:02.748Z,75.83
2023-03-31T22:05:07.225Z,76.27
2023-03-31T22:08:11.221Z,76.71
2023-03-31T22:11:16.757Z,76.65
2023-03-31T22:14:20.475Z,76.47
2023-03-31T22:17:24.053Z,76.08
2023-03-31T22:20:28.321Z,75.80
2023-03-31T22:23:32.712Z,75.63
2023-03-31T22:26:37.903Z,76.43
2023-03-31T22:29:42.021Z,76.08
2023-03-31T22:32:45.985Z,75.96
2023-03-31T22:35:50.542Z,75.70
2023-03-31T22:38:54.334Z,75.81
2023-03-31T22:41:59.571Z,75.43
2023-03-31T22:45:03.773Z,76.07
2023-03-31T22:48:09.887Z,75.62
2023-03-31T22:51:14.437Z,75.61
2023-03-31T22:54:18.511Z,75.80
2023-03-31T22:57:24.022Z,75.80
2023-03-31T23:00:27.738Z,75.51
2023-03-31T23:03:31.661Z,75.97
2023-03-31T23:06:36.161Z,75.25
2023-03-31T23:09:40.106Z,75.93
2023-03-31T23:12:45.239Z,75.93
2023-03-31T23:15:49.000Z,75.28
2023-03-31T23:18:54.988Z,75.75
2023-03-31T23:22:02.080Z,75.56
2023-03-31T23:25:06.836Z,76.19
2023-03-31T23:28:11.969Z,75.31
2023-03-31T23:31:16.321Z,75.61
2023-03-31T23:34:20.055Z,75.79
2023-03-31T23:37:23.910Z,75.74
2023-03-31T23:40:27.692Z,76.16
2023-03-31T23:43:33.008Z,75.43
2023-03-31T23:46:38.143Z,75.81
2023-03-31T23:49:41.804Z,75.72
2023-03-31T23:52:53.114Z,76.00
2023-03-31T23:55:59.023Z,75.89
2023-03-31T23:59:04.793Z,75.62
